createdAt,value
2023-03-25T00:03:17.760Z,12.30
2023-03-25T00:08:19.614Z,12.20
2023-03-25T00:13:22.056Z,12.10
2023-03-25T00:18:25.652Z,12.10
2023-03-25T00:23:28.607Z,12.10
2023-03-25T00:28:32.651Z,12.00
2023-03-25T00:33:35.429Z,12.10
2023-03-25T00:38:37.816Z,12.10
2023-03-25T00:43:40.430Z,12.10
2023-03-25T00:48:43.683Z,12.10
2023-03-25T00:53:45.816Z,12.10
2023-03-25T00:58:47.802Z,12.10
2023-03-25T01:03:57.809Z,12.00
2023-03-25T01:09:02.030Z,11.90
2023-03-25T01:14:12.677Z,11.80
2023-03-25T01:19:14.720Z,11.70
2023-03-25T01:24:16.765Z,11.60
2023-03-25T01:29:21.160Z,11.50
2023-03-25T01:34:23.569Z,11.40
2023-03-25T01:39:25.345Z,11.40
2023-03-25T01:44:27.878Z,11.40
2023-03-25T01:49:38.869Z,11.40
2023-03-25T01:54:41.784Z,11.40
2023-03-25T01:59:43.753Z,11.40
2023-03-25T02:04:59.180Z,11.40
2023-03-25T02:10:05.012Z,11.40
2023-03-25T02:15:08.997Z,11.30
2023-03-25T02:20:47.828Z,11.30
2023-03-25T02:26:10.424Z,11.30
2023-03-25T02:31:46.612Z,11.30
2023-03-25T02:37:18.149Z,11.40
2023-03-25T02:42:33.178Z,11.40
2023-03-25T02:47:38.916Z,11.40
2023-03-25T02:52:46.477Z,11.40
2023-03-25T02:57:52.661Z,11.40
2023-03-25T03:03:00.941Z,11.50
2023-03-25T03:08:20.101Z,11.50
2023-03-25T03:13:36.970Z,11.50
2023-03-25T03:18:53.773Z,11.60
2023-03-25T03:24:07.927Z,11.50
2023-03-25T03:29:37.956Z,11.50
2023-03-25T03:34:49.841Z,11.60
2023-03-25T03:39:55.324Z,11.50
2023-03-25T03:45:04.862Z,11.30
2023-03-25T03:50:19.642Z,11.00
2023-03-25T03:55:37.965Z,10.60
2023-03-25T04:01:03.172Z,10.40
2023-03-25T04:06:24.684Z,10.30
2023-03-25T04:11:35.947Z,10.30
2023-03-25T04:16:37.893Z,10.30
2023-03-25T04:21:40.124Z,10.30
2023-03-25T04:26:42.342Z,10.30
2023-03-25T04:31:46.667Z,10.20
2023-03-25T04:36:51.014Z,10.10
2023-03-25T04:41:53.917Z,10.10
2023-03-25T04:46:56.382Z,10.10
2023-03-25T04:51:59.209Z,10.00
2023-03-25T04:57:01.631Z,10.00
2023-03-25T05:02:05.924Z,9.90
2023-03-25T05:07:08.868Z,9.90
2023-03-25T05:12:11.612Z,9.80
2023-03-25T05:17:13.623Z,9.80
2023-03-25T05:22:15.435Z,9.70
2023-03-25T05:27:20.271Z,9.70
2023-03-25T05:32:22.512Z,9.80
2023-03-25T05:37:24.383Z,9.80
2023-03-25T05:42:26.248Z,9.90
2023-03-25T05:47:29.081Z,9.90
2023-03-25T05:52:31.052Z,10.00
2023-03-25T05:57:32.898Z,9.90
2023-03-25T06:02:38.813Z,10.00
2023-03-25T06:07:48.425Z,10.00
2023-03-25T06:12:53.056Z,10.00
2023-03-25T06:17:58.077Z,9.90
2023-03-25T06:23:01.944Z,9.90
2023-03-25T06:28:04.132Z,10.00
2023-03-25T06:33:06.198Z,10.00
2023-03-25T06:38:09.970Z,10.10
2023-03-25T06:43:31.713Z,10.30
2023-03-25T06:48:56.434Z,10.50
2023-03-25T06:53:58.380Z,10.70
2023-03-25T06:59:00.286Z,10.80
2023-03-25T07:04:02.514Z,10.90
2023-03-25T07:09:04.538Z,11.00
2023-03-25T07:14:06.611Z,11.10
2023-03-25T07:19:08.428Z,11.20
2023-03-25T07:24:10.317Z,11.30
2023-03-25T07:29:12.184Z,11.40
2023-03-25T07:34:14.053Z,11.60
2023-03-25T07:39:15.849Z,11.70
2023-03-25T07:44:20.459Z,11.70
2023-03-25T07:49:24.501Z,11.90
2023-03-25T07:54:29.340Z,11.90
2023-03-25T07:59:31.344Z,11.90
2023-03-25T08:04:33.318Z,11.90
2023-03-25T08:09:35.397Z,12.00
2023-03-25T08:14:37.383Z,11.90
2023-03-25T08:19:39.354Z,12.00
2023-03-25T08:24:41.754Z,12.00
2023-03-25T08:29:57.185Z,12.10
2023-03-25T08:34:59.241Z,12.00
2023-03-25T08:40:10.994Z,12.00
2023-03-25T08:45:13.319Z,11.90
2023-03-25T08:50:15.907Z,11.90
2023-03-25T08:55:17.846Z,11.90
2023-03-25T09:00:24.322Z,11.80
2023-03-25T09:05:27.024Z,11.70
2023-03-25T09:10:28.907Z,11.60
2023-03-25T09:15:30.885Z,11.40
2023-03-25T09:20:33.707Z,11.40
2023-03-25T09:25:37.053Z,11.40
2023-03-25T09:30:38.945Z,11.40
2023-03-25T09:35:42.203Z,11.50
2023-03-25T09:40:44.772Z,11.60
2023-03-25T09:45:48.494Z,11.70
2023-03-25T09:50:52.767Z,11.60
2023-03-25T09:55:55.853Z,11.60
2023-03-25T10:01:20.356Z,11.70
2023-03-25T10:06:43.148Z,11.70
2023-03-25T10:12:24.365Z,11.70
2023-03-25T10:17:56.817Z,11.80
2023-03-25T10:23:13.401Z,11.80
2023-03-25T10:28:22.674Z,11.80
2023-03-25T10:33:37.334Z,11.80
2023-03-25T10:38:42.051Z,11.80
2023-03-25T10:43:44.664Z,11.70
2023-03-25T10:48:48.909Z,11.60
2023-03-25T10:53:53.278Z,11.50
2023-03-25T10:58:58.337Z,11.30
2023-03-25T11:04:05.445Z,11.10
2023-03-25T11:09:23.739Z,10.90
2023-03-25T11:14:28.572Z,10.90
2023-03-25T11:19:42.132Z,10.90
2023-03-25T11:24:50.753Z,10.80
2023-03-25T11:30:04.630Z,10.80
2023-03-25T11:35:22.315Z,10.80
2023-03-25T11:40:25.732Z,10.90
2023-03-25T11:45:38.847Z,11.30
2023-03-25T11:50:52.485Z,11.50
2023-03-25T11:56:17.806Z,11.80
2023-03-25T12:01:31.012Z,11.80
2023-03-25T12:06:33.476Z,11.90
2023-03-25T12:11:44.825Z,11.90
2023-03-25T12:17:18.894Z,12.10
2023-03-25T12:22:26.247Z,12.50
2023-03-25T12:27:59.591Z,13.10
2023-03-25T12:33:24.997Z,13.20
2023-03-25T12:38:45.000Z,13.40
2023-03-25T12:43:50.403Z,13.70
2023-03-25T12:49:25.900Z,13.80
2023-03-25T12:54:49.738Z,14.10
2023-03-25T12:59:55.507Z,14.30
2023-03-25T13:05:27.790Z,14.50
2023-03-25T13:10:40.160Z,14.70
2023-03-25T13:15:59.320Z,15.00
2023-03-25T13:21:20.557Z,15.00
2023-03-25T13:26:29.712Z,14.90
2023-03-25T13:31:36.850Z,14.90
2023-03-25T13:36:44.471Z,14.90
2023-03-25T13:41:54.950Z,14.80
2023-03-25T13:47:09.051Z,14.80
2023-03-25T13:52:14.953Z,14.60
2023-03-25T13:57:37.949Z,14.60
2023-03-25T14:02:59.785Z,14.60
2023-03-25T14:08:39.793Z,14.70
2023-03-25T14:13:49.177Z,14.70
2023-03-25T14:18:56.977Z,14.60
2023-03-25T14:24:05.385Z,14.70
2023-03-25T14:29:32.142Z,14.80
2023-03-25T14:34:35.943Z,14.80
2023-03-25T14:39:42.371Z,14.80
2023-03-25T14:44:54.650Z,14.90
2023-03-25T14:50:22.354Z,14.90
2023-03-25T14:55:33.789Z,15.00
2023-03-25T15:00:42.701Z,15.00
2023-03-25T15:05:56.617Z,14.90
2023-03-25T15:11:34.017Z,14.90
2023-03-25T15:16:58.630Z,14.80
2023-03-25T15:22:03.136Z,14.70
2023-03-25T15:27:50.909Z,14.40
2023-03-25T15:33:29.640Z,14.10
2023-03-25T15:38:48.251Z,13.90
2023-03-25T15:44:20.435Z,14.00
2023-03-25T15:49:22.214Z,14.20
2023-03-25T15:54:41.948Z,14.30
2023-03-25T15:59:54.237Z,14.30
2023-03-25T16:04:56.943Z,14.40
2023-03-25T16:10:13.146Z,14.40
2023-03-25T16:15:17.331Z,14.40
2023-03-25T16:20:24.684Z,14.40
2023-03-25T16:25:39.032Z,14.00
2023-03-25T16:30:44.086Z,13.70
2023-03-25T16:36:01.077Z,13.40
2023-03-25T16:41:07.509Z,13.30
2023-03-25T16:46:11.603Z,13.20
2023-03-25T16:51:29.713Z,13.30
2023-03-25T16:56:33.454Z,13.30
2023-03-25T17:01:42.622Z,13.40
2023-03-25T17:06:53.136Z,13.50
2023-03-25T17:11:57.641Z,13.40
2023-03-25T17:17:14.764Z,13.40
2023-03-25T17:22:34.965Z,13.20
2023-03-25T17:27:38.785Z,13.20
2023-03-25T17:32:44.941Z,13.10
2023-03-25T17:37:48.714Z,13.10
2023-03-25T17:42:51.542Z,13.00
2023-03-25T17:47:53.524Z,12.90
2023-03-25T17:52:55.530Z,12.90
2023-03-25T17:57:58.073Z,12.90
2023-03-25T18:03:00.015Z,12.90
2023-03-25T18:08:03.446Z,12.90
2023-03-25T18:13:05.601Z,12.90
2023-03-25T18:18:18.228Z,12.90
2023-03-25T18:23:20.471Z,13.00
2023-03-25T18:28:22.875Z,13.00
2023-03-25T18:33:28.900Z,13.10
2023-03-25T18:38:30.878Z,13.10
2023-03-25T18:43:32.991Z,13.20
2023-03-25T18:48:34.915Z,13.20
2023-03-25T18:53:36.962Z,13.20
2023-03-25T18:58:39.049Z,13.30
2023-03-25T19:03:41.294Z,13.30
2023-03-25T19:08:44.371Z,13.30
2023-03-25T19:13:46.258Z,13.30
2023-03-25T19:18:48.812Z,13.30
2023-03-25T19:23:52.307Z,13.20
2023-03-25T19:28:54.330Z,13.10
2023-03-25T19:33:56.501Z,13.00
2023-03-25T19:38:58.862Z,12.90
2023-03-25T19:44:01.111Z,12.80
2023-03-25T19:49:03.061Z,12.60
2023-03-25T19:54:05.195Z,12.70
2023-03-25T19:59:07.394Z,12.60
2023-03-25T20:04:09.233Z,12.60
2023-03-25T20:09:12.857Z,12.50
2023-03-25T20:14:14.777Z,12.40
2023-03-25T20:19:16.785Z,12.40
2023-03-25T20:24:18.970Z,12.40
2023-03-25T20:29:22.305Z,12.40
2023-03-25T20:34:24.299Z,12.40
2023-03-25T20:39:26.661Z,12.40
2023-03-25T20:44:28.947Z,12.40
2023-03-25T20:49:31.300Z,12.50
2023-03-25T20:54:33.183Z,12.50
2023-03-25T20:59:35.598Z,12.50
2023-03-25T21:04:38.248Z,12.60
2023-03-25T21:09:40.396Z,12.60
2023-03-25T21:14:43.197Z,12.60
2023-03-25T21:19:45.218Z,12.60
2023-03-25T21:24:47.327Z,12.60
2023-03-25T21:29:50.006Z,12.60
2023-03-25T21:34:52.433Z,12.60
2023-03-25T21:39:57.469Z,12.60
2023-03-25T21:44:59.804Z,12.60
2023-03-25T21:50:02.158Z,12.50
2023-03-25T21:55:05.495Z,12.50
2023-03-25T22:00:08.545Z,12.50
2023-03-25T22:05:16.974Z,12.50
2023-03-25T22:10:18.898Z,12.50
2023-03-25T22:15:21.248Z,12.50
2023-03-25T22:20:23.166Z,12.40
2023-03-25T22:25:25.037Z,12.50
2023-03-25T22:30:26.908Z,12.60
2023-03-25T22:35:28.809Z,12.70
2023-03-25T22:40:30.773Z,12.60
2023-03-25T22:45:32.591Z,12.50
2023-03-25T22:50:34.850Z,12.50
2023-03-25T22:55:37.890Z,12.60
2023-03-25T23:00:39.746Z,12.60
2023-03-25T23:05:41.879Z,12.50
2023-03-25T23:10:44.717Z,12.50
2023-03-25T23:15:47.604Z,12.40
2023-03-25T23:20:49.527Z,12.30
2023-03-25T23:26:06.836Z,12.20
2023-03-25T23:31:14.492Z,12.00
2023-03-25T23:36:18.687Z,11.90
2023-03-25T23:41:25.773Z,11.80
2023-03-25T23:46:28.174Z,11.80
2023-03-25T23:51:33.634Z,11.90
2023-03-25T23:56:36.548Z,12.00
